Time;durP1;ratioP1;P1;durP2;ratioP2;P2;SDS_P1;SDS_P2;PMS_P1;PMS_P2;Temp;Humidity;BMP_temperature;BMP_pressure;BME280_temperature;BME280_humidity;BME280_pressure;Samples;Min_cycle;Max_cycle;Signal;HPM_P1;HPM_P2
2022/08/29 00:00:14;;;;;;;5.97;5.15;;;18.90;82.80;;;21.77;50.70;97819.41;5024107;28;20348;-40
2022/08/29 00:02:53;;;;;;;7.53;5.25;;;18.90;82.70;;;21.76;50.84;97820.44;5023780;28;20231;-40
2022/08/29 00:05:25;;;;;;;5.80;5.13;;;18.90;82.60;;;21.76;50.76;97822.31;5023704;28;20269;-40
2022/08/29 00:07:53;;;;;;;7.82;5.18;;;18.80;82.00;;;21.75;50.38;97828.78;5023362;28;20045;-40
2022/08/29 00:10:22;;;;;;;9.52;5.57;;;18.80;81.90;;;21.71;50.68;97820.28;5023705;28;20344;-40
2022/08/29 00:12:50;;;;;;;6.63;5.38;;;18.80;82.00;;;21.67;50.69;97815.56;5023396;28;20054;-40
2022/08/29 00:15:19;;;;;;;6.35;4.50;;;18.80;81.90;;;21.67;50.64;97826.41;5023598;28;20072;-40
2022/08/29 00:17:47;;;;;;;5.88;4.95;;;18.80;82.00;;;21.65;50.65;97823.91;5022953;28;20054;-39
2022/08/29 00:20:21;;;;;;;5.80;5.20;;;18.80;81.70;;;21.65;50.23;97823.91;5023281;28;20248;-40
2022/08/29 00:22:57;;;;;;;5.68;5.00;;;18.80;81.70;;;21.61;50.65;97831.66;5023326;28;20340;-40
2022/08/29 00:25:26;;;;;;;6.35;5.15;;;18.70;81.60;;;21.58;50.66;97825.91;5023354;28;20052;-40
2022/08/29 00:27:53;;;;;;;7.75;5.90;;;18.70;81.90;;;21.55;51.14;97826.34;5022931;28;20060;-40
2022/08/29 00:30:22;;;;;;;9.07;5.20;;;18.70;82.90;;;21.49;50.80;97830.78;5023302;28;20052;-40
2022/08/29 00:32:51;;;;;;;7.30;4.80;;;18.60;82.90;;;21.48;50.48;97823.72;5023288;28;20060;-40
2022/08/29 00:35:24;;;;;;;8.70;5.75;;;18.60;82.40;;;21.47;50.61;97829.38;5021936;28;20053;-40
2022/08/29 00:37:53;;;;;;;8.73;5.18;;;18.60;82.00;;;21.46;50.38;97825.84;5022709;28;20038;-40
2022/08/29 00:40:36;;;;;;;6.82;4.57;;;18.60;81.70;;;21.46;50.10;97830.41;5023205;28;20068;-40
2022/08/29 00:43:06;;;;;;;6.47;4.93;;;18.50;81.30;;;21.42;50.50;97827.28;5023044;28;20050;-40
2022/08/29 00:45:40;;;;;;;6.70;5.18;;;18.50;81.60;;;21.38;50.42;97834.22;5023144;28;20046;-40
2022/08/29 00:48:13;;;;;;;7.50;5.10;;;18.50;82.10;;;21.37;50.57;97835.28;5021662;28;20366;-40
2022/08/29 00:50:50;;;;;;;6.45;5.50;;;18.50;82.30;;;21.33;50.63;97826.78;5022836;28;20370;-40
2022/08/29 00:53:37;;;;;;;6.78;4.72;;;18.40;82.10;;;21.31;50.41;97823.47;5021961;28;20050;-40
2022/08/29 00:56:08;;;;;;;7.93;5.43;;;18.40;82.20;;;21.29;51.00;97830.19;5021724;28;20062;-40
2022/08/29 00:58:48;;;;;;;9.43;5.70;;;18.40;82.60;;;21.26;50.81;97825.19;5021241;28;20052;-40
2022/08/29 01:01:17;;;;;;;7.43;5.32;;;18.40;82.40;;;21.23;50.70;97824.59;5021839;28;20046;-40
2022/08/29 01:03:46;;;;;;;5.72;4.72;;;18.30;82.00;;;21.18;50.54;97829.03;5021851;28;20237;-40
2022/08/29 01:06:15;;;;;;;7.47;4.60;;;18.20;82.00;;;21.16;50.75;97834.66;5021778;28;20064;-40
2022/08/29 01:08:44;;;;;;;7.40;5.15;;;18.30;82.50;;;21.11;50.90;97836.38;5021373;28;20064;-40
2022/08/29 01:14:03;;;;;;;7.85;5.00;;;18.10;83.10;;;21.07;50.82;97830.59;5021803;28;20255;-40
2022/08/29 01:16:32;;;;;;;8.15;5.00;;;18.10;82.80;;;21.06;50.47;97836.25;5021940;28;20373;-41
2022/08/29 01:19:22;;;;;;;7.13;4.82;;;18.10;82.40;;;21.08;50.49;97839.56;5022029;28;20049;-40
2022/08/29 01:22:01;;;;;;;;;;;18.20;82.00;;;21.19;50.07;97836.09;5022450;28;20042;-40
2022/08/29 01:24:40;;;;;;;6.45;4.65;;;18.10;81.90;;;21.11;50.52;97834.53;5021345;28;19918;-39
2022/08/29 01:27:09;;;;;;;6.35;5.03;;;18.10;82.80;;;21.02;50.63;97830.44;5022003;28;20046;-39
2022/08/29 01:29:39;;;;;;;5.75;4.80;;;18.10;82.50;;;20.99;50.57;97831.69;5017353;28;20057;-39
2022/08/29 01:32:07;;;;;;;8.15;4.70;;;18.00;82.50;;;20.96;50.83;97836.75;5002396;28;20050;-39
2022/08/29 01:34:35;;;;;;;7.20;5.57;;;18.00;82.60;;;20.94;50.61;97836.97;5003011;28;20061;-39
2022/08/29 01:37:08;;;;;;;7.32;5.13;;;18.10;82.70;;;20.94;50.66;97841.56;5000955;28;20052;-39
2022/08/29 01:39:40;;;;;;;8.05;4.93;;;18.10;82.40;;;20.94;51.20;97833.44;5001701;28;20046;-39
2022/08/29 01:42:21;;;;;;;6.28;4.45;;;18.10;82.80;;;20.95;50.95;97835.09;5033239;28;20053;-39
2022/08/29 01:44:54;;;;;;;7.75;4.82;;;18.00;82.40;;;20.91;50.88;97840.13;5002412;28;20038;-39
2022/08/29 01:47:26;;;;;;;6.95;4.82;;;18.00;82.30;;;20.87;50.66;97832.69;5002400;28;20056;-39
2022/08/29 01:49:55;;;;;;;8.00;5.20;;;18.00;81.90;;;20.83;50.62;97841.22;5002514;28;20050;-39
2022/08/29 01:52:23;;;;;;;7.38;5.13;;;17.90;82.40;;;20.81;50.79;97837.91;5002033;28;20046;-40
2022/08/29 01:54:50;;;;;;;5.95;4.93;;;17.90;82.40;;;20.80;50.58;97841.69;5002445;28;20046;-41
2022/08/29 01:57:19;;;;;;;4.95;3.78;;;17.90;82.10;;;20.79;50.65;97842.72;5002224;28;20252;-40
2022/08/29 01:59:47;;;;;;;7.93;4.93;;;17.90;81.90;;;20.80;50.51;97846.25;5002392;28;20046;-40
2022/08/29 02:02:26;;;;;;;5.38;4.32;;;17.90;81.30;;;20.79;50.80;97841.91;5002146;28;20042;-40
2022/08/29 02:04:57;;;;;;;10.52;4.97;;;17.90;81.60;;;20.75;50.49;97838.81;5002717;28;20076;-40
2022/08/29 02:07:25;;;;;;;6.25;4.45;;;17.80;81.20;;;20.68;50.65;97832.63;5002105;28;20042;-40
2022/08/29 02:09:53;;;;;;;11.40;4.65;;;17.70;82.20;;;20.63;50.80;97837.88;5002900;28;20057;-40
2022/08/29 02:12:21;;;;;;;5.57;4.40;;;17.70;82.20;;;20.60;50.81;97841.84;5002105;28;20057;-40
2022/08/29 02:14:49;;;;;;;6.47;4.03;;;17.60;82.20;;;20.62;50.66;97830.81;5002272;28;20050;-40
2022/08/29 02:17:18;;;;;;;6.07;4.35;;;17.70;82.30;;;20.61;50.81;97834.59;5002300;28;20042;-40
2022/08/29 02:19:46;;;;;;;6.15;4.55;;;17.70;82.10;;;20.60;50.92;97841.84;5033166;28;20050;-40
2022/08/29 02:22:14;;;;;;;5.72;4.68;;;17.70;82.10;;;20.59;50.77;97832.09;5002059;28;20042;-40
2022/08/29 02:24:42;;;;;;;6.93;4.65;;;17.70;82.20;;;20.59;50.61;97836.66;5001972;28;20047;-40
2022/08/29 02:27:11;;;;;;;6.25;4.50;;;17.70;81.90;;;20.57;50.96;97830.59;5002297;28;20064;-40
2022/08/29 02:29:39;;;;;;;7.10;4.60;;;17.70;82.20;;;20.57;50.76;97841.41;4999487;28;20157;-40
2022/08/29 02:32:12;;;;;;;6.38;4.30;;;17.70;81.80;;;20.53;50.93;97843.75;5002410;28;20056;-40
2022/08/29 02:34:45;;;;;;;13.50;5.00;;;17.60;82.00;;;20.53;50.76;97843.75;5002804;28;20050;-40
2022/08/29 02:37:16;;;;;;;6.63;4.70;;;17.60;81.80;;;20.53;50.64;97845.63;5006073;28;20058;-40
2022/08/29 02:39:44;;;;;;;9.38;4.43;;;17.60;81.70;;;20.48;50.41;97835.47;5005632;28;20048;-40
2022/08/29 02:42:12;;;;;;;5.28;4.18;;;17.60;81.50;;;20.48;50.34;97832.75;5005169;28;20050;-40
2022/08/29 02:44:39;;;;;;;6.32;3.83;;;17.60;81.20;;;20.46;50.59;97829.47;5005397;28;20050;-40
2022/08/29 02:47:08;;;;;;;6.72;5.28;;;17.50;81.20;;;20.43;50.52;97835.28;5005520;28;20046;-40
2022/08/29 02:49:36;;;;;;;7.28;5.07;;;17.50;81.20;;;20.41;50.59;97838.25;5005476;28;20057;-40
2022/08/29 02:52:05;;;;;;;7.65;4.85;;;17.50;81.20;;;20.38;50.44;97835.13;5005663;28;20050;-39
2022/08/29 02:54:34;;;;;;;6.80;4.20;;;17.50;81.10;;;20.37;50.28;97833.47;5005362;28;20046;-39
2022/08/29 02:57:03;;;;;;;5.93;4.47;;;17.40;80.90;;;20.36;50.63;97832.66;5005420;28;20385;-39
2022/08/29 02:59:31;;;;;;;11.20;5.05;;;17.40;80.90;;;20.36;50.54;97829.13;5005619;28;20058;-39
2022/08/29 03:01:58;;;;;;;9.38;5.20;;;17.50;81.00;;;20.34;50.42;97836.63;5005735;28;20050;-39
2022/08/29 03:04:27;;;;;;;10.95;4.93;;;17.40;80.50;;;20.30;50.39;97827.28;5005199;28;20352;-39
2022/08/29 03:06:54;;;;;;;7.25;4.20;;;17.40;80.80;;;20.27;50.68;97829.38;5005464;28;20053;-39
2022/08/29 03:09:22;;;;;;;8.88;4.18;;;17.40;81.10;;;20.25;50.43;97826.06;5003986;28;20174;-39
2022/08/29 03:11:53;;;;;;;9.45;5.20;;;17.30;81.10;;;20.21;50.35;97834.84;5005037;28;20056;-39
2022/08/29 03:14:23;;;;;;;6.05;4.18;;;17.30;81.10;;;20.20;50.66;97841.28;5005127;28;20055;-39
2022/08/29 03:16:52;;;;;;;6.32;4.53;;;17.30;81.40;;;20.18;50.72;97840.66;5004849;28;20390;-39
2022/08/29 03:19:21;;;;;;;7.65;4.90;;;17.30;81.60;;;20.16;50.80;97840.06;5005448;28;20050;-39
2022/08/29 03:21:49;;;;;;;6.50;4.32;;;17.20;81.90;;;20.09;50.87;97842.81;5005020;28;20057;-39
2022/08/29 03:24:17;;;;;;;7.90;4.90;;;17.20;82.30;;;20.05;50.78;97830.78;5004907;28;20050;-39
2022/08/29 03:26:54;;;;;;;9.20;4.65;;;17.10;82.20;;;20.06;50.73;97829.72;5005090;28;20046;-40
2022/08/29 03:29:24;;;;;;;7.93;4.00;;;17.10;82.20;;;20.08;50.94;97824.09;5004704;28;20054;-40
2022/08/29 03:31:57;;;;;;;6.68;4.13;;;17.20;82.40;;;20.04;51.25;97818.31;5005070;28;20371;-40
2022/08/29 03:34:26;;;;;;;7.60;4.20;;;17.10;82.70;;;19.99;51.14;97821.69;5004728;28;20054;-39
2022/08/29 03:36:56;;;;;;;7.13;4.05;;;17.10;83.30;;;19.97;51.12;97831.88;5004930;28;20453;-40
2022/08/29 03:39:24;;;;;;;8.20;5.38;;;17.00;83.40;;;19.96;51.00;97826.69;5004975;28;20146;-39
2022/08/29 03:41:52;;;;;;;6.80;4.63;;;17.00;82.80;;;19.94;51.07;97824.19;5003994;28;20049;-39
2022/08/29 03:44:21;;;;;;;10.10;4.95;;;17.00;82.60;;;19.88;50.70;97832.34;5005001;28;20056;-39
2022/08/29 03:46:49;;;;;;;6.88;3.97;;;16.90;82.20;;;19.85;50.68;97829.03;5034731;28;20050;-39
2022/08/29 03:49:16;;;;;;;10.20;4.88;;;16.90;82.30;;;19.85;50.94;97829.03;5005526;28;20050;-39
2022/08/29 03:51:44;;;;;;;6.63;4.88;;;16.80;82.50;;;19.85;51.07;97834.44;5004564;28;20242;-39
2022/08/29 03:54:12;;;;;;;8.05;3.72;;;16.90;82.90;;;19.84;50.99;97827.34;5004729;28;20066;-40
2022/08/29 03:56:40;;;;;;;6.68;4.43;;;16.90;83.00;;;19.84;50.97;97840.03;5004476;28;20060;-39
2022/08/29 03:59:08;;;;;;;8.82;4.35;;;16.90;83.00;;;19.79;51.08;97842.56;5004077;28;20241;-39
2022/08/29 04:01:35;;;;;;;6.65;4.03;;;16.90;82.80;;;19.78;50.95;97846.31;5004369;28;20056;-40
2022/08/29 04:04:04;;;;;;;6.15;3.70;;;16.80;82.70;;;19.74;51.01;97843.22;5004167;28;20236;-40
2022/08/29 04:06:32;;;;;;;7.22;3.97;;;16.80;82.60;;;19.75;50.83;97844.03;5035619;28;20050;-39
2022/08/29 04:09:00;;;;;;;6.28;3.97;;;16.90;82.30;;;19.77;50.90;97836.53;5003975;28;20056;-39
2022/08/29 04:11:28;;;;;;;9.57;3.88;;;16.90;81.90;;;19.78;50.95;97840.91;5004337;28;20056;-40
2022/08/29 04:13:56;;;;;;;5.47;4.00;;;16.90;82.00;;;19.79;50.65;97843.41;5003621;28;20349;-39
2022/08/29 04:16:28;;;;;;;7.20;4.47;;;16.90;81.40;;;19.78;50.66;97847.13;5004114;28;20046;-39
2022/08/29 04:18:58;;;;;;;8.85;4.78;;;16.90;80.80;;;19.79;50.62;97845.25;5034180;28;20052;-39
2022/08/29 04:21:26;;;;;;;6.13;4.30;;;16.90;80.80;;;19.81;50.43;97844.03;5005513;28;20058;-40
2022/08/29 04:23:55;;;;;;;10.65;4.65;;;17.00;80.30;;;19.81;50.35;97849.41;5004217;28;20057;-40
2022/08/29 04:26:23;;;;;;;5.68;3.63;;;17.00;79.80;;;19.80;50.13;97844.22;5003695;28;20042;-40
2022/08/29 04:29:09;;;;;;;8.95;3.60;;;17.00;79.30;;;19.81;50.12;97853.97;5003742;28;20050;-40
2022/08/29 04:31:40;;;;;;;9.07;4.05;;;16.90;79.40;;;19.81;50.05;97852.13;5003818;28;20046;-40
2022/08/29 04:34:11;;;;;;;5.68;3.67;;;16.90;79.10;;;19.79;50.06;97854.22;5034709;28;20052;-40
2022/08/29 04:36:43;;;;;;;5.47;3.58;;;17.00;79.10;;;19.80;49.98;97855.03;5002783;28;20062;-39
2022/08/29 04:39:12;;;;;;;6.65;3.85;;;16.90;78.80;;;19.75;49.99;97844.84;5003275;28;20073;-40
2022/08/29 04:41:40;;;;;;;9.18;4.00;;;16.90;79.10;;;19.73;49.94;97846.13;5002803;28;20340;-40
2022/08/29 04:44:11;;;;;;;8.98;5.13;;;16.80;78.90;;;19.68;50.15;97846.75;5003404;28;20050;-40
2022/08/29 04:46:39;;;;;;;6.22;4.00;;;16.80;79.50;;;19.68;49.89;97857.56;5003325;28;20052;-40
2022/08/29 04:49:07;;;;;;;4.28;3.22;;;16.70;78.90;;;19.64;49.83;97856.31;5003198;28;20054;-40
2022/08/29 04:51:35;;;;;;;6.82;3.75;;;16.60;79.00;;;19.60;50.03;97855.06;5003799;28;20061;-40
2022/08/29 04:54:05;;;;;;;6.47;4.45;;;16.60;79.20;;;19.58;49.94;97852.59;5034607;28;20237;-40
2022/08/29 04:56:36;;;;;;;8.10;3.28;;;16.70;79.20;;;19.62;50.08;97858.41;5003003;28;20349;-40
2022/08/29 04:59:04;;;;;;;6.40;3.67;;;16.70;79.30;;;19.65;50.00;97860.66;5002615;28;20048;-40
2022/08/29 05:01:32;;;;;;;6.57;3.88;;;16.80;79.10;;;19.66;50.07;97860.47;5003267;28;20243;-40
2022/08/29 05:04:00;;;;;;;5.63;4.15;;;16.80;79.10;;;19.65;50.10;97861.50;5003537;28;20050;-40
2022/08/29 05:06:27;;;;;;;5.47;4.03;;;16.80;78.90;;;19.67;49.90;97869.38;5003574;28;20236;-40
2022/08/29 05:08:55;;;;;;;7.63;4.47;;;16.80;78.80;;;19.66;50.10;97873.16;5002893;28;20050;-40
2022/08/29 05:11:30;;;;;;;5.07;3.83;;;16.80;79.30;;;19.65;50.25;97866.88;5002951;28;20048;-40
2022/08/29 05:13:59;;;;;;;7.47;3.88;;;16.80;79.80;;;19.64;50.46;97876.06;5002920;28;20056;-40
2022/08/29 05:16:28;;;;;;;7.32;4.22;;;16.70;79.80;;;19.65;50.24;97876.88;5002857;28;20076;-40
2022/08/29 05:18:58;;;;;;;9.15;4.65;;;16.80;79.90;;;19.66;50.42;97875.84;5002850;28;20049;-39
2022/08/29 05:21:30;;;;;;;10.43;4.38;;;16.80;80.00;;;19.68;50.42;97877.28;5002981;28;20214;-40
2022/08/29 05:24:07;;;;;;;6.25;4.20;;;16.80;79.90;;;19.70;50.40;97877.06;5003256;28;20046;-40
2022/08/29 05:26:40;;;;;;;6.05;3.95;;;16.80;79.60;;;19.73;50.28;97878.53;5002914;28;20052;-39
2022/08/29 05:29:11;;;;;;;5.45;3.58;;;16.80;79.80;;;19.74;50.34;97880.22;5002589;28;20049;-40
2022/08/29 05:31:40;;;;;;;6.28;4.07;;;16.80;79.70;;;19.73;50.19;97876.66;4999946;28;20060;-40
2022/08/29 05:34:11;;;;;;;7.85;3.63;;;16.80;79.30;;;19.74;50.16;97878.31;5002635;28;20050;-40
2022/08/29 05:37:01;;;;;;;6.43;3.95;;;16.90;79.30;;;19.79;50.39;97880.38;5002620;28;20076;-39
2022/08/29 05:39:29;;;;;;;7.07;3.72;;;17.00;79.20;;;19.80;50.07;97873.94;5003251;28;20054;-39
2022/08/29 05:41:57;;;;;;;5.88;3.83;;;16.90;78.60;;;19.81;50.01;97884.53;5003097;28;20050;-39
2022/08/29 05:44:28;;;;;;;5.30;3.30;;;17.00;78.30;;;19.81;49.79;97879.13;5002849;28;20046;-40
2022/08/29 05:47:05;;;;;;;10.13;4.53;;;17.10;78.70;;;19.84;49.99;97877.88;5031345;28;20046;-40
2022/08/29 05:49:38;;;;;;;5.07;3.17;;;17.10;77.50;;;19.88;49.89;97883.69;5002633;28;20054;-40
2022/08/29 05:52:07;;;;;;;7.45;3.90;;;17.10;77.30;;;19.91;49.90;97878.69;5034049;28;20065;-39
2022/08/29 05:54:38;;;;;;;5.63;4.18;;;17.20;77.50;;;19.94;50.42;97880.09;5002440;28;20362;-40
2022/08/29 05:57:08;;;;;;;7.30;3.53;;;17.20;78.00;;;19.95;50.18;97890.72;5033733;28;20244;-40
2022/08/29 05:59:37;;;;;;;7.30;4.15;;;17.20;77.60;;;19.96;49.76;97902.34;5002260;28;20058;-39
2022/08/29 06:02:08;;;;;;;7.22;3.90;;;17.20;77.60;;;19.95;49.86;97901.50;5002421;28;20345;-39
2022/08/29 06:04:37;;;;;;;7.10;3.50;;;17.20;77.20;;;20.00;49.79;97900.84;5002400;28;20241;-40
2022/08/29 06:07:06;;;;;;;6.28;3.90;;;17.20;76.80;;;20.04;49.77;97910.19;5002572;28;20329;-39
2022/08/29 06:09:36;;;;;;;7.90;3.90;;;17.30;76.80;;;20.09;49.52;97913.09;5005095;28;20061;-40
2022/08/29 06:12:06;;;;;;;11.88;4.53;;;17.30;76.60;;;20.13;49.46;97919.72;5037561;28;20337;-39
2022/08/29 06:14:35;;;;;;;7.47;3.63;;;17.40;76.40;;;20.14;49.42;97920.53;5038368;28;20054;-40
2022/08/29 06:17:05;;;;;;;13.35;4.43;;;17.40;76.30;;;20.16;49.62;97913.88;5006240;28;20259;-39
2022/08/29 06:19:38;;;;;;;5.40;3.80;;;17.40;76.10;;;20.22;49.64;97915.72;5006340;28;20050;-40
2022/08/29 06:22:08;;;;;;;5.10;3.60;;;17.40;76.10;;;20.26;49.12;97914.22;5006682;28;20054;-39
2022/08/29 06:24:38;;;;;;;6.03;4.18;;;17.50;75.80;;;20.31;49.10;97915.47;5007139;28;20046;-39
2022/08/29 06:27:06;;;;;;;9.38;4.05;;;17.50;75.60;;;20.34;49.22;97912.34;5005982;28;20260;-39
2022/08/29 06:29:34;;;;;;;6.07;3.78;;;17.50;76.00;;;20.37;49.63;97914.59;5037442;28;20050;-40
2022/08/29 06:32:11;;;;;;;10.48;3.80;;;17.60;76.00;;;20.39;49.52;97910.59;5006193;28;20263;-40
2022/08/29 06:34:40;;;;;;;10.40;4.03;;;17.70;76.30;;;20.46;49.46;97927.63;5005853;28;20076;-40
2022/08/29 06:37:08;;;;;;;8.02;3.78;;;17.70;75.90;;;20.50;49.21;97928.03;5006482;28;20050;-40
2022/08/29 06:39:35;;;;;;;7.72;4.38;;;17.70;75.40;;;20.52;49.36;97927.81;5005849;28;20054;-40
2022/08/29 06:42:03;;;;;;;7.43;4.10;;;17.80;75.50;;;20.53;49.30;97930.31;5006025;28;20051;-40
2022/08/29 06:44:31;;;;;;;5.88;3.95;;;17.80;75.20;;;20.52;49.31;97928.63;5005684;28;20248;-40
2022/08/29 06:47:00;;;;;;;7.43;3.50;;;17.80;74.80;;;20.55;49.15;97930.06;5004677;28;20244;-40
2022/08/29 06:49:29;;;;;;;5.20;3.33;;;17.90;75.00;;;20.59;49.29;97928.59;5005310;28;20046;-40
2022/08/29 06:51:57;;;;;;;8.40;4.18;;;17.90;74.80;;;20.63;49.17;97932.56;5005922;28;20057;-39
2022/08/29 06:54:27;;;;;;;5.75;4.38;;;17.90;74.80;;;20.63;49.17;97927.16;5005489;28;20042;-40
2022/08/29 06:56:57;;;;;;;8.75;4.05;;;18.00;74.70;;;20.67;49.17;97924.84;5036841;28;20148;-41
2022/08/29 06:59:26;;;;;;;8.25;4.07;;;18.00;74.70;;;20.71;49.10;97935.00;5004970;28;20043;-40
2022/08/29 07:01:54;;;;;;;6.28;3.95;;;18.00;74.90;;;20.76;49.17;97939.72;5005449;28;20049;-40
2022/08/29 07:04:22;;;;;;;5.05;3.25;;;18.00;74.50;;;20.72;48.63;97938.50;5036764;28;20337;-40
2022/08/29 07:06:53;;;;;;;6.25;3.55;;;18.10;73.90;;;20.69;49.01;97938.97;5005426;28;20052;-41
2022/08/29 07:09:21;;;;;;;7.82;3.90;;;18.10;73.50;;;20.72;48.58;97933.09;5005003;28;20050;-40
2022/08/29 07:11:49;;;;;;;8.75;4.38;;;18.10;73.30;;;20.77;48.86;97934.09;5005396;28;20052;-40
2022/08/29 07:14:17;;;;;;;5.10;3.47;;;18.10;73.40;;;20.83;48.69;97941.34;5004940;28;20260;-40
2022/08/29 07:16:45;;;;;;;6.72;3.45;;;18.20;73.50;;;20.88;48.99;97938.00;5005178;28;20058;-40
2022/08/29 07:19:13;;;;;;;9.95;5.07;;;18.20;73.40;;;20.93;48.97;97948.16;5004674;28;20050;-40
2022/08/29 07:21:40;;;;;;;5.88;3.30;;;18.30;74.00;;;20.98;48.82;97945.63;5003966;28;20072;-40
2022/08/29 07:24:09;;;;;;;6.20;3.85;;;18.30;74.30;;;20.99;48.78;97942.66;5004900;28;20046;-40
2022/08/29 07:26:42;;;;;;;5.47;3.80;;;18.30;73.70;;;21.02;49.13;97941.41;5005076;28;20046;-40
2022/08/29 07:29:18;;;;;;;8.20;4.60;;;18.30;73.90;;;21.05;48.89;97949.06;5036363;28;20266;-40
2022/08/29 07:31:46;;;;;;;5.25;4.05;;;18.30;73.80;;;21.07;48.59;97949.69;5005075;28;20054;-40
2022/08/29 07:34:15;;;;;;;7.95;4.90;;;18.30;73.80;;;21.10;48.44;97954.66;5004753;28;20230;-40
2022/08/29 07:36:47;;;;;;;6.32;4.25;;;18.30;73.50;;;21.14;48.30;97953.16;5004983;28;20050;-40
2022/08/29 07:39:18;;;;;;;5.30;3.75;;;18.30;73.50;;;21.15;48.38;97952.13;5004517;28;20050;-40
2022/08/29 07:41:46;;;;;;;7.78;4.95;;;18.40;73.10;;;21.19;48.16;97945.22;5004768;28;20048;-40
2022/08/29 07:44:15;;;;;;;6.63;4.95;;;18.50;73.30;;;21.24;48.58;97958.91;5004566;28;20242;-40
2022/08/29 07:46:44;;;;;;;7.25;4.53;;;18.50;73.80;;;21.29;48.73;97954.72;5003590;28;20046;-40
2022/08/29 07:49:12;;;;;;;6.32;4.60;;;18.70;73.50;;;21.35;48.63;97953.81;5004168;28;20052;-40
2022/08/29 07:51:40;;;;;;;10.77;4.78;;;18.80;73.10;;;21.42;48.25;97958.13;5004835;28;20230;-40
2022/08/29 07:54:15;;;;;;;6.75;4.90;;;18.80;72.80;;;21.51;48.55;97955.16;5004440;28;20050;-40
2022/08/29 07:56:45;;;;;;;8.25;4.78;;;18.90;72.40;;;21.55;48.15;97954.47;5004612;28;20050;-40
2022/08/29 07:59:14;;;;;;;6.70;4.47;;;18.90;72.60;;;21.61;48.69;97963.59;5004117;28;20046;-40
2022/08/29 08:01:43;;;;;;;6.15;5.28;;;18.90;72.90;;;21.66;48.36;97961.03;5004187;28;20248;-40
2022/08/29 08:04:11;;;;;;;7.05;5.45;;;19.00;73.20;;;21.74;48.26;97954.50;5004136;28;20038;-40
2022/08/29 08:06:41;;;;;;;6.28;5.05;;;19.10;72.90;;;21.79;48.85;97951.91;5004324;28;20050;-40
2022/08/29 08:09:12;;;;;;;5.95;5.03;;;19.10;72.90;;;21.84;48.73;97954.78;5035278;28;20054;-40
2022/08/29 08:11:41;;;;;;;14.35;5.43;;;19.20;73.20;;;21.91;48.79;97955.56;5035279;28;20054;-40
2022/08/29 08:14:10;;;;;;;10.25;5.43;;;19.30;73.10;;;21.97;48.36;97948.41;5003932;28;20252;-40
2022/08/29 08:16:38;;;;;;;8.02;5.07;;;19.40;72.90;;;22.02;48.70;97954.78;5004633;28;20345;-40
2022/08/29 08:19:14;;;;;;;8.15;5.03;;;19.40;72.70;;;22.10;48.61;97950.94;5004090;28;20050;-40
2022/08/29 08:21:44;;;;;;;10.20;5.90;;;19.50;73.00;;;22.15;48.52;97952.97;5034930;28;20042;-40
2022/08/29 08:24:20;;;;;;;8.93;5.93;;;19.60;72.90;;;22.16;48.61;97957.34;5004282;28;20050;-40
2022/08/29 08:26:48;;;;;;;7.93;6.13;;;19.60;72.60;;;22.16;48.54;97960.88;5004046;28;20042;-41
2022/08/29 08:29:16;;;;;;;7.97;5.28;;;19.60;73.00;;;22.20;48.59;97958.53;5003464;28;20053;-41
2022/08/29 08:31:48;;;;;;;8.80;6.03;;;19.60;72.60;;;22.25;48.84;97955.97;5000582;28;20058;-40
2022/08/29 08:34:18;;;;;;;9.30;5.88;;;19.70;72.80;;;22.34;48.68;97960.03;5035397;28;20054;-40
2022/08/29 08:36:46;;;;;;;6.43;5.47;;;19.80;73.00;;;22.39;48.81;97962.91;5004168;28;20061;-40
2022/08/29 08:39:14;;;;;;;9.88;5.85;;;19.80;73.20;;;22.44;48.54;97964.09;5003689;28;20057;-40
2022/08/29 08:42:08;;;;;;;8.15;6.53;;;19.90;73.10;;;22.53;48.92;97962.72;5004385;28;20054;-40
2022/08/29 08:45:21;;;;;;;8.57;5.65;;;20.00;73.40;;;22.63;48.72;97970.31;5030599;28;20046;-40
2022/08/29 08:48:09;;;;;;;8.45;6.25;;;20.10;73.10;;;22.76;48.76;97972.78;5001230;28;20058;-40
2022/08/29 08:50:58;;;;;;;10.02;5.25;;;20.20;73.10;;;22.84;48.64;97972.50;5003495;28;20053;-40
2022/08/29 08:53:42;;;;;;;8.50;6.05;;;20.30;72.80;;;22.92;48.59;97961.28;5033805;28;20058;-40
2022/08/29 08:57:07;;;;;;;8.95;6.22;;;20.40;72.70;;;22.99;49.09;97970.16;5033335;28;20051;-41
2022/08/29 08:59:42;;;;;;;9.10;7.00;;;20.50;72.90;;;23.07;48.74;97969.03;5026330;28;20054;-40
2022/08/29 09:02:50;;;;;;;10.73;7.30;;;20.60;72.80;;;23.12;48.78;97971.03;5003372;28;20046;-41
2022/08/29 09:05:39;;;;;;;9.18;8.15;;;20.70;72.10;;;23.14;48.65;97971.63;5030123;28;20050;-40
2022/08/29 09:08:46;;;;;;;8.93;7.25;;;20.60;72.40;;;23.23;48.78;97972.94;5003683;28;20084;-40
2022/08/29 09:11:40;;;;;;;12.07;7.80;;;20.70;72.50;;;23.29;48.77;97976.59;5003952;28;20096;-41
2022/08/29 09:14:53;;;;;;;9.30;6.97;;;20.80;72.80;;;23.38;49.12;97973.31;5003021;28;20054;-40
2022/08/29 09:17:31;;;;;;;8.63;6.85;;;20.90;73.00;;;23.46;48.66;97980.28;4995480;28;20056;-40
2022/08/29 09:20:12;;;;;;;15.25;8.32;;;20.90;72.70;;;23.49;48.35;97978.97;5032539;28;20050;-40
2022/08/29 09:22:48;;;;;;;8.73;6.35;;;21.00;72.40;;;23.53;48.55;97983.69;5003148;28;20053;-41
2022/08/29 09:25:16;;;;;;;11.40;6.60;;;21.00;72.70;;;23.61;48.41;97979.78;5032784;28;20048;-40
2022/08/29 09:27:44;;;;;;;7.13;6.25;;;21.10;72.30;;;23.66;48.19;97984.50;5002598;28;20046;-41
2022/08/29 09:30:25;;;;;;;9.55;6.88;;;21.20;71.40;;;23.74;48.14;97981.44;5003319;28;20081;-41
2022/08/29 09:33:15;;;;;;;12.13;6.95;;;21.30;70.80;;;23.81;47.99;97976.75;5002367;28;20076;-41
2022/08/29 09:35:52;;;;;;;8.20;6.75;;;21.30;70.40;;;23.89;47.81;97968.22;5002550;28;20072;-40
2022/08/29 09:38:24;;;;;;;12.68;7.55;;;21.40;71.00;;;23.95;48.10;97971.88;5002478;28;20076;-40
2022/08/29 09:41:01;;;;;;;11.88;7.18;;;21.50;71.20;;;24.01;47.94;97968.19;5033772;28;20046;-41
2022/08/29 09:43:37;;;;;;;11.85;8.65;;;21.50;71.00;;;24.08;47.90;97978.91;5002793;28;20054;-41
2022/08/29 09:46:13;;;;;;;10.27;7.28;;;21.60;70.10;;;24.09;47.56;97975.97;5001197;28;20050;-41
2022/08/29 09:49:11;;;;;;;12.43;6.75;;;21.60;70.30;;;24.13;47.13;97974.41;5002476;28;20351;-41
2022/08/29 09:51:48;;;;;;;8.43;6.15;;;21.60;69.00;;;24.23;47.11;97983.84;5005058;28;20050;-40
2022/08/29 09:54:22;;;;;;;7.35;6.60;;;21.70;69.20;;;24.27;47.30;97977.69;5033500;28;20260;-41
2022/08/29 09:56:57;;;;;;;11.00;7.25;;;21.80;69.20;;;24.32;47.06;97968.81;5002520;28;20056;-41
2022/08/29 09:59:33;;;;;;;13.05;8.38;;;21.80;69.10;;;24.42;46.76;97968.19;5032767;28;20060;-41
2022/08/29 10:02:43;;;;;;;15.38;7.55;;;21.90;68.50;;;24.49;46.89;97964.25;5002558;28;20049;-42
2022/08/29 10:05:40;;;;;;;8.65;6.35;;;22.00;66.20;;;24.57;46.80;97963.06;4996761;28;20072;-41
2022/08/29 10:08:28;;;;;;;8.85;6.65;;;22.00;67.10;;;24.63;46.77;97958.53;5002303;28;20042;-40
2022/08/29 10:11:05;;;;;;;10.48;7.72;;;22.10;66.90;;;24.66;46.08;97952.59;5002166;28;20046;-41
2022/08/29 10:13:53;;;;;;;14.80;7.72;;;22.20;66.80;;;24.73;46.08;97959.53;5002501;28;20050;-40
2022/08/29 10:16:50;;;;;;;8.70;5.45;;;22.20;66.90;;;24.83;46.26;97960.78;5002320;28;20089;-41
2022/08/29 10:19:26;;;;;;;8.80;6.32;;;22.40;66.70;;;24.92;46.11;97964.75;5029516;28;20145;-41
2022/08/29 10:22:18;;;;;;;8.48;5.82;;;22.50;66.70;;;25.04;45.97;97976.41;5031850;28;20038;-40
2022/08/29 10:25:15;;;;;;;8.07;6.47;;;22.60;66.00;;;25.09;45.89;97964.78;5002276;28;20046;-41
2022/08/29 10:27:59;;;;;;;9.02;5.68;;;22.60;65.10;;;25.12;45.58;97961.53;5015622;28;20056;-41
2022/08/29 10:31:16;;;;;;;11.57;5.65;;;22.70;64.50;;;25.21;45.49;97962.78;5032122;28;20053;-41
2022/08/29 10:34:08;;;;;;;10.70;5.25;;;22.80;64.80;;;25.31;45.43;97962.97;4991728;28;20382;-41
2022/08/29 10:36:40;;;;;;;9.63;6.13;;;22.80;65.00;;;25.38;45.22;97965.53;5002710;28;20054;-41
2022/08/29 10:39:15;;;;;;;8.70;5.20;;;22.90;64.50;;;25.40;44.82;97968.03;5002686;28;20054;-41
2022/08/29 10:42:03;;;;;;;7.63;5.57;;;23.00;64.10;;;25.45;44.94;97954.47;5002005;28;20068;-41
2022/08/29 10:44:50;;;;;;;7.97;4.47;;;23.00;63.50;;;25.52;44.70;97961.38;5002095;28;20050;-41